sensor_id;sensor_type;location;lat;lon;timestamp;pressure;altitude;pressure_sealevel;temperature;humidity
22020;BME280;51298;53.362;-1.518;2023-12-04T00:02:31;98235.19;;;-0.43;92.40
22020;BME280;51298;53.362;-1.518;2023-12-04T00:05:07;98227.75;;;-0.57;93.29
22020;BME280;51298;53.362;-1.518;2023-12-04T00:07:54;98228.56;;;-0.57;92.80
22020;BME280;51298;53.362;-1.518;2023-12-04T00:10:28;98226.91;;;-0.58;92.98
22020;BME280;51298;53.362;-1.518;2023-12-04T00:13:15;98215.38;;;-0.52;93.31
22020;BME280;51298;53.362;-1.518;2023-12-04T00:15:53;98213.63;;;-0.52;92.86
22020;BME280;51298;53.362;-1.518;2023-12-04T00:18:39;98205.81;;;-0.50;93.32
22020;BME280;51298;53.362;-1.518;2023-12-04T00:21:13;98206.53;;;-0.48;92.92
22020;BME280;51298;53.362;-1.518;2023-12-04T00:24:04;98201.63;;;-0.51;93.58
22020;BME280;51298;53.362;-1.518;2023-12-04T00:26:37;98211.66;;;-0.48;93.34
22020;BME280;51298;53.362;-1.518;2023-12-04T00:29:25;98197.78;;;-0.45;92.77
22020;BME280;51298;53.362;-1.518;2023-12-04T00:31:58;98199.78;;;-0.49;93.34
22020;BME280;51298;53.362;-1.518;2023-12-04T00:34:45;98183.81;;;-0.53;93.23
22020;BME280;51298;53.362;-1.518;2023-12-04T00:37:19;98187.28;;;-0.42;92.76
22020;BME280;51298;53.362;-1.518;2023-12-04T00:40:07;98180.66;;;-0.45;93.43
22020;BME280;51298;53.362;-1.518;2023-12-04T00:42:41;98173.19;;;-0.48;93.00
22020;BME280;51298;53.362;-1.518;2023-12-04T00:45:27;98166.19;;;-0.46;92.74
22020;BME280;51298;53.362;-1.518;2023-12-04T00:48:00;98161.16;;;-0.47;92.73
22020;BME280;51298;53.362;-1.518;2023-12-04T00:50:48;98158.38;;;-0.44;93.58
22020;BME280;51298;53.362;-1.518;2023-12-04T00:53:21;98151.03;;;-0.49;93.49
22020;BME280;51298;53.362;-1.518;2023-12-04T00:56:08;98147.88;;;-0.41;92.84
22020;BME280;51298;53.362;-1.518;2023-12-04T00:58:41;98144.75;;;-0.45;93.25
22020;BME280;51298;53.362;-1.518;2023-12-04T01:01:29;98136.22;;;-0.45;93.38
22020;BME280;51298;53.362;-1.518;2023-12-04T01:04:02;98121.66;;;-0.45;92.87
22020;BME280;51298;53.362;-1.518;2023-12-04T01:06:48;98115.00;;;-0.47;93.29
22020;BME280;51298;53.362;-1.518;2023-12-04T01:09:21;98111.03;;;-0.52;93.20
22020;BME280;51298;53.362;-1.518;2023-12-04T01:12:08;98103.94;;;-0.48;93.32
22020;BME280;51298;53.362;-1.518;2023-12-04T01:14:42;98099.75;;;-0.49;93.01
22020;BME280;51298;53.362;-1.518;2023-12-04T01:17:28;98110.09;;;-0.51;93.31
22020;BME280;51298;53.362;-1.518;2023-12-04T01:20:01;98091.91;;;-0.47;93.71
22020;BME280;51298;53.362;-1.518;2023-12-04T01:22:48;98092.13;;;-0.39;92.92
22020;BME280;51298;53.362;-1.518;2023-12-04T01:25:24;98091.56;;;-0.43;93.89
22020;BME280;51298;53.362;-1.518;2023-12-04T01:28:10;98088.75;;;-0.40;93.51
22020;BME280;51298;53.362;-1.518;2023-12-04T01:30:43;98084.81;;;-0.44;93.95
22020;BME280;51298;53.362;-1.518;2023-12-04T01:33:30;98084.34;;;-0.49;93.63
22020;BME280;51298;53.362;-1.518;2023-12-04T01:36:03;98079.44;;;-0.41;93.19
22020;BME280;51298;53.362;-1.518;2023-12-04T01:38:51;98080.59;;;-0.34;93.21
22020;BME280;51298;53.362;-1.518;2023-12-04T01:41:25;98091.31;;;-0.40;93.60
22020;BME280;51298;53.362;-1.518;2023-12-04T01:44:12;98082.34;;;-0.34;93.73
22020;BME280;51298;53.362;-1.518;2023-12-04T01:46:46;98079.41;;;-0.30;93.43
22020;BME280;51298;53.362;-1.518;2023-12-04T01:49:32;98080.47;;;-0.32;93.14
22020;BME280;51298;53.362;-1.518;2023-12-04T01:52:06;98072.19;;;-0.36;93.79
22020;BME280;51298;53.362;-1.518;2023-12-04T01:54:57;98067.75;;;-0.34;93.69
22020;BME280;51298;53.362;-1.518;2023-12-04T01:57:30;98061.56;;;-0.31;93.43
22020;BME280;51298;53.362;-1.518;2023-12-04T02:00:18;98054.94;;;-0.34;93.04
22020;BME280;51298;53.362;-1.518;2023-12-04T02:02:57;98061.31;;;-0.28;93.45
22020;BME280;51298;53.362;-1.518;2023-12-04T02:05:47;98046.53;;;-0.36;93.82
22020;BME280;51298;53.362;-1.518;2023-12-04T02:08:21;98041.41;;;-0.36;93.69
22020;BME280;51298;53.362;-1.518;2023-12-04T02:11:07;98049.56;;;-0.31;93.31
22020;BME280;51298;53.362;-1.518;2023-12-04T02:13:40;98033.34;;;-0.31;93.99
22020;BME280;51298;53.362;-1.518;2023-12-04T02:16:27;98036.84;;;-0.32;94.15
22020;BME280;51298;53.362;-1.518;2023-12-04T02:19:01;98033.59;;;-0.34;93.62
22020;BME280;51298;53.362;-1.518;2023-12-04T02:21:52;98029.28;;;-0.34;93.30
22020;BME280;51298;53.362;-1.518;2023-12-04T02:24:26;98025.53;;;-0.30;93.21
22020;BME280;51298;53.362;-1.518;2023-12-04T02:27:28;98024.81;;;-0.32;94.12
22020;BME280;51298;53.362;-1.518;2023-12-04T02:30:05;98018.88;;;-0.32;93.99
22020;BME280;51298;53.362;-1.518;2023-12-04T02:32:58;98012.72;;;-0.30;93.83
22020;BME280;51298;53.362;-1.518;2023-12-04T02:35:35;98005.88;;;-0.19;93.78
22020;BME280;51298;53.362;-1.518;2023-12-04T02:38:23;98008.00;;;-0.25;93.71
22020;BME280;51298;53.362;-1.518;2023-12-04T02:40:59;98003.03;;;-0.26;93.51
22020;BME280;51298;53.362;-1.518;2023-12-04T02:43:46;98008.53;;;-0.31;93.93
22020;BME280;51298;53.362;-1.518;2023-12-04T02:46:21;97998.38;;;-0.32;93.64
22020;BME280;51298;53.362;-1.518;2023-12-04T02:49:07;97990.88;;;-0.24;94.08
22020;BME280;51298;53.362;-1.518;2023-12-04T02:51:41;97994.63;;;-0.28;93.93
22020;BME280;51298;53.362;-1.518;2023-12-04T02:54:28;97996.81;;;-0.23;93.71
22020;BME280;51298;53.362;-1.518;2023-12-04T02:57:02;97995.13;;;-0.13;93.37
22020;BME280;51298;53.362;-1.518;2023-12-04T02:59:49;97989.44;;;-0.17;93.97
22020;BME280;51298;53.362;-1.518;2023-12-04T03:02:22;97987.81;;;-0.18;94.34
22020;BME280;51298;53.362;-1.518;2023-12-04T03:05:09;97978.59;;;-0.20;94.35
22020;BME280;51298;53.362;-1.518;2023-12-04T03:07:42;97971.63;;;-0.18;93.81
22020;BME280;51298;53.362;-1.518;2023-12-04T03:10:30;97968.28;;;-0.09;94.19
22020;BME280;51298;53.362;-1.518;2023-12-04T03:13:03;97957.06;;;-0.08;93.52
22020;BME280;51298;53.362;-1.518;2023-12-04T03:15:51;97960.78;;;-0.01;93.88
22020;BME280;51298;53.362;-1.518;2023-12-04T03:18:30;97952.16;;;0.00;93.59
22020;BME280;51298;53.362;-1.518;2023-12-04T03:21:17;97949.31;;;0.03;93.50
22020;BME280;51298;53.362;-1.518;2023-12-04T03:23:51;97940.81;;;0.03;93.06
22020;BME280;51298;53.362;-1.518;2023-12-04T03:26:37;97934.06;;;0.02;93.49
22020;BME280;51298;53.362;-1.518;2023-12-04T03:29:10;97938.22;;;0.03;93.55
22020;BME280;51298;53.362;-1.518;2023-12-04T03:31:57;97931.63;;;0.00;94.05
22020;BME280;51298;53.362;-1.518;2023-12-04T03:34:31;97925.78;;;-0.02;94.05
22020;BME280;51298;53.362;-1.518;2023-12-04T03:37:17;97913.28;;;0.05;93.49
22020;BME280;51298;53.362;-1.518;2023-12-04T03:39:51;97908.00;;;0.06;93.63
22020;BME280;51298;53.362;-1.518;2023-12-04T03:42:37;97905.84;;;0.11;93.46
22020;BME280;51298;53.362;-1.518;2023-12-04T03:45:10;97897.34;;;0.11;93.81
22020;BME280;51298;53.362;-1.518;2023-12-04T03:48:00;97898.53;;;0.07;93.41
22020;BME280;51298;53.362;-1.518;2023-12-04T03:50:37;97894.59;;;0.03;93.51
22020;BME280;51298;53.362;-1.518;2023-12-04T03:53:26;97880.47;;;0.08;93.31
22020;BME280;51298;53.362;-1.518;2023-12-04T03:56:00;97877.59;;;0.11;93.50
22020;BME280;51298;53.362;-1.518;2023-12-04T03:58:47;97869.81;;;0.22;93.77
22020;BME280;51298;53.362;-1.518;2023-12-04T04:01:21;97876.56;;;0.14;93.77
22020;BME280;51298;53.362;-1.518;2023-12-04T04:04:08;97866.13;;;0.15;93.87
22020;BME280;51298;53.362;-1.518;2023-12-04T04:06:42;97864.41;;;0.16;93.44
22020;BME280;51298;53.362;-1.518;2023-12-04T04:09:29;97858.72;;;0.12;93.37
22020;BME280;51298;53.362;-1.518;2023-12-04T04:12:03;97856.81;;;0.14;93.65
22020;BME280;51298;53.362;-1.518;2023-12-04T04:14:53;97852.53;;;0.24;93.84
22020;BME280;51298;53.362;-1.518;2023-12-04T04:17:30;97839.28;;;0.19;94.10
22020;BME280;51298;53.362;-1.518;2023-12-04T04:20:20;97834.16;;;0.19;93.35
22020;BME280;51298;53.362;-1.518;2023-12-04T04:22:56;97840.66;;;0.23;93.80
22020;BME280;51298;53.362;-1.518;2023-12-04T04:25:42;97831.19;;;0.24;94.03
22020;BME280;51298;53.362;-1.518;2023-12-04T04:28:16;97835.53;;;0.23;93.77
22020;BME280;51298;53.362;-1.518;2023-12-04T04:31:06;97829.44;;;0.34;94.00
22020;BME280;51298;53.362;-1.518;2023-12-04T04:33:57;97821.75;;;0.34;94.21
22020;BME280;51298;53.362;-1.518;2023-12-04T04:36:45;97821.63;;;0.36;94.27
22020;BME280;51298;53.362;-1.518;2023-12-04T04:39:18;97819.56;;;0.30;94.23
22020;BME280;51298;53.362;-1.518;2023-12-04T04:42:05;97815.41;;;0.29;93.75
22020;BME280;51298;53.362;-1.518;2023-12-04T04:44:42;97811.22;;;0.28;93.80
22020;BME280;51298;53.362;-1.518;2023-12-04T04:47:32;97807.28;;;0.33;93.57
22020;BME280;51298;53.362;-1.518;2023-12-04T04:50:06;97800.13;;;0.37;94.29
22020;BME280;51298;53.362;-1.518;2023-12-04T04:52:57;97801.50;;;0.41;93.63
22020;BME280;51298;53.362;-1.518;2023-12-04T04:55:34;97800.00;;;0.38;93.67
22020;BME280;51298;53.362;-1.518;2023-12-04T04:58:26;97803.66;;;0.36;94.37
22020;BME280;51298;53.362;-1.518;2023-12-04T05:01:00;97788.66;;;0.41;94.23
22020;BME280;51298;53.362;-1.518;2023-12-04T05:03:47;97790.31;;;0.52;93.95
22020;BME280;51298;53.362;-1.518;2023-12-04T05:06:21;97783.66;;;0.39;93.38
22020;BME280;51298;53.362;-1.518;2023-12-04T05:09:09;97785.44;;;0.48;93.71
22020;BME280;51298;53.362;-1.518;2023-12-04T05:11:43;97787.44;;;0.45;94.30
22020;BME280;51298;53.362;-1.518;2023-12-04T05:14:32;97782.56;;;0.42;93.29
22020;BME280;51298;53.362;-1.518;2023-12-04T05:17:06;97779.59;;;0.37;93.29
22020;BME280;51298;53.362;-1.518;2023-12-04T05:19:55;97771.38;;;0.43;93.78
22020;BME280;51298;53.362;-1.518;2023-12-04T05:22:30;97773.50;;;0.38;93.57
22020;BME280;51298;53.362;-1.518;2023-12-04T05:25:10;97769.06;;;0.40;93.53
22020;BME280;51298;53.362;-1.518;2023-12-04T05:27:56;97769.34;;;0.46;93.96
22020;BME280;51298;53.362;-1.518;2023-12-04T05:30:34;97764.31;;;0.45;93.67
22020;BME280;51298;53.362;-1.518;2023-12-04T05:33:28;97758.78;;;0.40;93.79
22020;BME280;51298;53.362;-1.518;2023-12-04T05:36:01;97756.06;;;0.32;93.84
22020;BME280;51298;53.362;-1.518;2023-12-04T05:38:50;97756.63;;;0.35;93.30
22020;BME280;51298;53.362;-1.518;2023-12-04T05:41:42;97750.81;;;0.43;93.50
22020;BME280;51298;53.362;-1.518;2023-12-04T05:44:28;97755.00;;;0.44;93.56
22020;BME280;51298;53.362;-1.518;2023-12-04T05:47:04;97752.59;;;0.42;93.59
22020;BME280;51298;53.362;-1.518;2023-12-04T05:49:55;97751.63;;;0.53;94.34
22020;BME280;51298;53.362;-1.518;2023-12-04T05:52:31;97743.66;;;0.56;93.84
22020;BME280;51298;53.362;-1.518;2023-12-04T05:55:17;97738.66;;;0.55;94.19
22020;BME280;51298;53.362;-1.518;2023-12-04T05:57:55;97743.53;;;0.48;93.66
22020;BME280;51298;53.362;-1.518;2023-12-04T06:01:18;97738.22;;;0.49;94.25
22020;BME280;51298;53.362;-1.518;2023-12-04T06:03:50;97733.94;;;0.50;93.64
22020;BME280;51298;53.362;-1.518;2023-12-04T06:06:37;97726.22;;;0.50;94.02
22020;BME280;51298;53.362;-1.518;2023-12-04T06:09:10;97728.09;;;0.48;94.08
22020;BME280;51298;53.362;-1.518;2023-12-04T06:11:57;97726.75;;;0.54;94.41
22020;BME280;51298;53.362;-1.518;2023-12-04T06:14:30;97728.09;;;0.48;94.21
22020;BME280;51298;53.362;-1.518;2023-12-04T06:17:23;97718.09;;;0.45;93.72
22020;BME280;51298;53.362;-1.518;2023-12-04T06:19:55;97707.41;;;0.49;93.74
22020;BME280;51298;53.362;-1.518;2023-12-04T06:22:41;97710.38;;;0.45;94.11
22020;BME280;51298;53.362;-1.518;2023-12-04T06:25:14;97703.63;;;0.44;93.63
22020;BME280;51298;53.362;-1.518;2023-12-04T06:28:03;97695.66;;;0.47;94.27
22020;BME280;51298;53.362;-1.518;2023-12-04T06:30:36;97696.47;;;0.47;93.72
22020;BME280;51298;53.362;-1.518;2023-12-04T06:33:22;97690.94;;;0.52;93.99
22020;BME280;51298;53.362;-1.518;2023-12-04T06:35:56;97695.25;;;0.71;94.47
22020;BME280;51298;53.362;-1.518;2023-12-04T06:38:43;97696.31;;;0.68;94.02
22020;BME280;51298;53.362;-1.518;2023-12-04T06:41:25;97688.09;;;0.75;93.83
22020;BME280;51298;53.362;-1.518;2023-12-04T06:44:24;97680.09;;;0.78;94.21
22020;BME280;51298;53.362;-1.518;2023-12-04T06:47:02;97680.63;;;0.71;94.39
22020;BME280;51298;53.362;-1.518;2023-12-04T06:49:52;97671.44;;;0.69;94.14
22020;BME280;51298;53.362;-1.518;2023-12-04T06:52:25;97671.72;;;0.76;94.52
22020;BME280;51298;53.362;-1.518;2023-12-04T06:55:12;97670.34;;;0.71;93.95
22020;BME280;51298;53.362;-1.518;2023-12-04T06:57:48;97666.59;;;0.66;93.76
22020;BME280;51298;53.362;-1.518;2023-12-04T07:00:38;97669.16;;;0.66;93.84
22020;BME280;51298;53.362;-1.518;2023-12-04T07:03:11;97664.69;;;0.78;94.16
22020;BME280;51298;53.362;-1.518;2023-12-04T07:06:04;97672.41;;;0.78;94.33
22020;BME280;51298;53.362;-1.518;2023-12-04T07:08:36;97676.19;;;0.73;94.12
22020;BME280;51298;53.362;-1.518;2023-12-04T07:11:30;97673.06;;;0.80;94.20
22020;BME280;51298;53.362;-1.518;2023-12-04T07:14:02;97671.44;;;0.79;94.17
22020;BME280;51298;53.362;-1.518;2023-12-04T07:16:49;97675.88;;;0.86;94.72
22020;BME280;51298;53.362;-1.518;2023-12-04T07:19:26;97680.50;;;0.92;94.43
22020;BME280;51298;53.362;-1.518;2023-12-04T07:25:52;97668.31;;;0.85;94.66
22020;BME280;51298;53.362;-1.518;2023-12-04T07:28:24;97666.56;;;0.85;94.72
22020;BME280;51298;53.362;-1.518;2023-12-04T07:31:11;97668.19;;;0.86;95.05
22020;BME280;51298;53.362;-1.518;2023-12-04T07:33:46;97661.53;;;0.93;94.69
22020;BME280;51298;53.362;-1.518;2023-12-04T07:36:38;97665.84;;;1.03;94.54
22020;BME280;51298;53.362;-1.518;2023-12-04T07:39:22;97662.03;;;1.07;95.08
22020;BME280;51298;53.362;-1.518;2023-12-04T07:42:20;97659.88;;;1.02;94.60
22020;BME280;51298;53.362;-1.518;2023-12-04T07:44:57;97664.38;;;1.00;94.71
22020;BME280;51298;53.362;-1.518;2023-12-04T07:47:43;97662.19;;;1.05;95.08
22020;BME280;51298;53.362;-1.518;2023-12-04T07:50:16;97663.94;;;1.05;94.36
22020;BME280;51298;53.362;-1.518;2023-12-04T07:53:03;97667.44;;;1.13;94.63
22020;BME280;51298;53.362;-1.518;2023-12-04T07:55:36;97665.41;;;1.17;94.63
22020;BME280;51298;53.362;-1.518;2023-12-04T07:58:24;97648.59;;;1.22;94.71
22020;BME280;51298;53.362;-1.518;2023-12-04T08:01:01;97658.50;;;1.17;94.72
22020;BME280;51298;53.362;-1.518;2023-12-04T08:03:48;97662.94;;;1.25;94.91
22020;BME280;51298;53.362;-1.518;2023-12-04T08:06:20;97663.91;;;1.24;95.05
22020;BME280;51298;53.362;-1.518;2023-12-04T08:09:08;97664.84;;;1.23;94.85
22020;BME280;51298;53.362;-1.518;2023-12-04T08:11:44;97665.75;;;1.32;94.85
22020;BME280;51298;53.362;-1.518;2023-12-04T08:14:44;97666.41;;;1.34;94.58
22020;BME280;51298;53.362;-1.518;2023-12-04T08:17:20;97672.91;;;1.38;95.05
22020;BME280;51298;53.362;-1.518;2023-12-04T08:20:06;97665.88;;;1.30;94.84
22020;BME280;51298;53.362;-1.518;2023-12-04T08:22:40;97671.72;;;1.32;95.09
22020;BME280;51298;53.362;-1.518;2023-12-04T08:25:26;97672.09;;;1.37;94.70
22020;BME280;51298;53.362;-1.518;2023-12-04T08:27:59;97668.44;;;1.40;94.86
22020;BME280;51298;53.362;-1.518;2023-12-04T08:30:45;97665.00;;;1.49;94.95
22020;BME280;51298;53.362;-1.518;2023-12-04T08:33:18;97670.16;;;1.49;95.18
22020;BME280;51298;53.362;-1.518;2023-12-04T08:36:05;97657.97;;;1.51;94.85
22020;BME280;51298;53.362;-1.518;2023-12-04T08:38:38;97671.47;;;1.53;95.43
22020;BME280;51298;53.362;-1.518;2023-12-04T08:41:25;97662.59;;;1.48;95.17
22020;BME280;51298;53.362;-1.518;2023-12-04T08:44:01;97664.16;;;1.58;95.46
22020;BME280;51298;53.362;-1.518;2023-12-04T08:46:48;97660.63;;;1.59;95.35
22020;BME280;51298;53.362;-1.518;2023-12-04T08:49:21;97667.41;;;1.60;94.79
22020;BME280;51298;53.362;-1.518;2023-12-04T08:52:12;97664.69;;;1.62;95.04
22020;BME280;51298;53.362;-1.518;2023-12-04T08:54:45;97661.53;;;1.68;95.23
22020;BME280;51298;53.362;-1.518;2023-12-04T08:57:31;97664.38;;;1.65;95.22
22020;BME280;51298;53.362;-1.518;2023-12-04T09:00:04;97658.00;;;1.69;95.05
22020;BME280;51298;53.362;-1.518;2023-12-04T09:02:51;97667.56;;;1.77;95.42
22020;BME280;51298;53.362;-1.518;2023-12-04T09:05:24;97666.38;;;1.81;95.09
22020;BME280;51298;53.362;-1.518;2023-12-04T09:08:11;97663.38;;;1.76;95.29
22020;BME280;51298;53.362;-1.518;2023-12-04T09:10:44;97670.66;;;1.62;95.29
22020;BME280;51298;53.362;-1.518;2023-12-04T09:13:30;97667.44;;;1.78;95.66
22020;BME280;51298;53.362;-1.518;2023-12-04T09:16:06;97659.84;;;1.77;95.26
22020;BME280;51298;53.362;-1.518;2023-12-04T09:19:32;97666.38;;;1.81;95.19
22020;BME280;51298;53.362;-1.518;2023-12-04T09:22:05;97666.72;;;1.86;95.40
22020;BME280;51298;53.362;-1.518;2023-12-04T09:24:53;97664.97;;;1.86;95.09
22020;BME280;51298;53.362;-1.518;2023-12-04T09:27:25;97664.00;;;1.87;95.56
22020;BME280;51298;53.362;-1.518;2023-12-04T09:30:12;97669.16;;;1.87;95.18
22020;BME280;51298;53.362;-1.518;2023-12-04T09:32:46;97664.00;;;1.87;95.40
22020;BME280;51298;53.362;-1.518;2023-12-04T09:35:33;97673.13;;;1.82;95.01
22020;BME280;51298;53.362;-1.518;2023-12-04T09:38:06;97671.59;;;1.89;94.88
22020;BME280;51298;53.362;-1.518;2023-12-04T09:40:53;97675.09;;;1.88;94.79
22020;BME280;51298;53.362;-1.518;2023-12-04T09:43:31;97666.72;;;1.86;95.28
22020;BME280;51298;53.362;-1.518;2023-12-04T09:46:17;97669.59;;;1.83;95.04
22020;BME280;51298;53.362;-1.518;2023-12-04T09:48:51;97672.00;;;1.84;95.06
22020;BME280;51298;53.362;-1.518;2023-12-04T09:51:37;97669.97;;;1.88;95.40
22020;BME280;51298;53.362;-1.518;2023-12-04T09:54:11;97673.94;;;1.82;95.22
22020;BME280;51298;53.362;-1.518;2023-12-04T09:56:58;97673.50;;;1.87;94.57
22020;BME280;51298;53.362;-1.518;2023-12-04T09:59:31;97673.50;;;1.87;95.26
22020;BME280;51298;53.362;-1.518;2023-12-04T10:02:17;97675.78;;;1.90;95.16
22020;BME280;51298;53.362;-1.518;2023-12-04T10:04:51;97675.94;;;1.88;94.95
22020;BME280;51298;53.362;-1.518;2023-12-04T10:07:37;97674.81;;;1.91;95.11
22020;BME280;51298;53.362;-1.518;2023-12-04T10:10:10;97671.72;;;1.87;95.24
22020;BME280;51298;53.362;-1.518;2023-12-04T10:12:57;97675.06;;;1.98;95.13
22020;BME280;51298;53.362;-1.518;2023-12-04T10:15:33;97672.69;;;1.86;94.71
22020;BME280;51298;53.362;-1.518;2023-12-04T10:18:30;97674.31;;;1.87;94.72
22020;BME280;51298;53.362;-1.518;2023-12-04T10:21:05;97671.00;;;1.95;94.82
22020;BME280;51298;53.362;-1.518;2023-12-04T10:23:52;97674.19;;;1.89;94.88
22020;BME280;51298;53.362;-1.518;2023-12-04T10:26:24;97675.63;;;1.91;94.75
22020;BME280;51298;53.362;-1.518;2023-12-04T10:29:12;97670.06;;;1.96;95.32
22020;BME280;51298;53.362;-1.518;2023-12-04T10:31:45;97666.53;;;1.97;94.82
22020;BME280;51298;53.362;-1.518;2023-12-04T10:34:34;97672.84;;;2.03;94.70
22020;BME280;51298;53.362;-1.518;2023-12-04T10:37:14;97671.53;;;1.99;94.93
22020;BME280;51298;53.362;-1.518;2023-12-04T10:39:49;97666.38;;;1.99;94.78
22020;BME280;51298;53.362;-1.518;2023-12-04T10:42:35;97671.69;;;1.97;94.67
22020;BME280;51298;53.362;-1.518;2023-12-04T10:45:08;97662.03;;;1.99;94.73
22020;BME280;51298;53.362;-1.518;2023-12-04T10:47:56;97659.25;;;1.92;94.79
22020;BME280;51298;53.362;-1.518;2023-12-04T10:50:29;97660.13;;;2.01;94.72
22020;BME280;51298;53.362;-1.518;2023-12-04T10:53:18;97667.41;;;2.06;94.75
22020;BME280;51298;53.362;-1.518;2023-12-04T10:55:54;97663.75;;;2.08;94.98
22020;BME280;51298;53.362;-1.518;2023-12-04T10:58:42;97661.75;;;2.02;94.99
22020;BME280;51298;53.362;-1.518;2023-12-04T11:01:15;97658.69;;;2.16;94.63
22020;BME280;51298;53.362;-1.518;2023-12-04T11:04:02;97657.34;;;2.12;94.47
22020;BME280;51298;53.362;-1.518;2023-12-04T11:06:41;97654.09;;;2.10;94.74
22020;BME280;51298;53.362;-1.518;2023-12-04T11:09:29;97647.69;;;2.14;94.72
22020;BME280;51298;53.362;-1.518;2023-12-04T11:12:05;97650.19;;;2.06;94.75
22020;BME280;51298;53.362;-1.518;2023-12-04T11:14:56;97639.69;;;2.17;95.22
22020;BME280;51298;53.362;-1.518;2023-12-04T11:17:34;97643.00;;;2.10;94.72
22020;BME280;51298;53.362;-1.518;2023-12-04T11:20:27;97645.53;;;2.19;95.03
22020;BME280;51298;53.362;-1.518;2023-12-04T11:23:03;97637.78;;;2.19;95.23
22020;BME280;51298;53.362;-1.518;2023-12-04T11:25:49;97646.03;;;2.23;94.95
22020;BME280;51298;53.362;-1.518;2023-12-04T11:28:23;97644.91;;;2.26;94.83
22020;BME280;51298;53.362;-1.518;2023-12-04T11:31:10;97641.00;;;2.22;94.65
22020;BME280;51298;53.362;-1.518;2023-12-04T11:33:43;97643.47;;;2.23;95.05
22020;BME280;51298;53.362;-1.518;2023-12-04T11:36:29;97638.06;;;2.16;94.60
22020;BME280;51298;53.362;-1.518;2023-12-04T11:39:03;97637.78;;;2.19;94.76
22020;BME280;51298;53.362;-1.518;2023-12-04T11:41:52;97636.91;;;2.29;95.04
22020;BME280;51298;53.362;-1.518;2023-12-04T11:44:25;97624.59;;;2.23;94.85
22020;BME280;51298;53.362;-1.518;2023-12-04T11:47:12;97633.16;;;2.23;94.79
22020;BME280;51298;53.362;-1.518;2023-12-04T11:49:44;97627.56;;;2.28;94.82
22020;BME280;51298;53.362;-1.518;2023-12-04T11:52:34;97626.13;;;2.33;95.02
22020;BME280;51298;53.362;-1.518;2023-12-04T11:55:07;97622.47;;;2.36;94.50
22020;BME280;51298;53.362;-1.518;2023-12-04T11:57:54;97621.00;;;2.33;94.88
22020;BME280;51298;53.362;-1.518;2023-12-04T12:00:28;97618.28;;;2.35;94.69
22020;BME280;51298;53.362;-1.518;2023-12-04T12:03:15;97612.16;;;2.36;95.13
22020;BME280;51298;53.362;-1.518;2023-12-04T12:05:48;97614.38;;;2.31;94.89
22020;BME280;51298;53.362;-1.518;2023-12-04T12:08:36;97617.53;;;2.42;94.59
22020;BME280;51298;53.362;-1.518;2023-12-04T12:11:09;97611.72;;;2.40;94.89
22020;BME280;51298;53.362;-1.518;2023-12-04T12:13:55;97619.28;;;2.42;94.71
22020;BME280;51298;53.362;-1.518;2023-12-04T12:16:31;97622.97;;;2.39;94.81
22020;BME280;51298;53.362;-1.518;2023-12-04T12:19:19;97613.13;;;2.35;94.61
22020;BME280;51298;53.362;-1.518;2023-12-04T12:22:14;97612.38;;;2.42;94.78
22020;BME280;51298;53.362;-1.518;2023-12-04T12:25:04;97622.38;;;2.45;95.05
22020;BME280;51298;53.362;-1.518;2023-12-04T12:27:39;97624.44;;;2.42;94.66
22020;BME280;51298;53.362;-1.518;2023-12-04T12:30:25;97625.28;;;2.42;94.89
22020;BME280;51298;53.362;-1.518;2023-12-04T12:33:01;97620.91;;;2.43;94.96
22020;BME280;51298;53.362;-1.518;2023-12-04T12:35:47;97616.56;;;2.43;94.80
22020;BME280;51298;53.362;-1.518;2023-12-04T12:38:20;97610.16;;;2.48;94.62
22020;BME280;51298;53.362;-1.518;2023-12-04T12:41:07;97611.13;;;2.47;94.69
22020;BME280;51298;53.362;-1.518;2023-12-04T12:43:40;97616.41;;;2.45;94.53
22020;BME280;51298;53.362;-1.518;2023-12-04T12:46:30;97615.25;;;2.39;94.47
22020;BME280;51298;53.362;-1.518;2023-12-04T12:49:03;97617.22;;;2.45;94.78
22020;BME280;51298;53.362;-1.518;2023-12-04T12:51:49;97610.75;;;2.41;94.68
22020;BME280;51298;53.362;-1.518;2023-12-04T12:54:26;97620.47;;;2.48;94.93
22020;BME280;51298;53.362;-1.518;2023-12-04T12:57:13;97617.72;;;2.49;94.60
22020;BME280;51298;53.362;-1.518;2023-12-04T12:59:49;97622.88;;;2.49;95.03
22020;BME280;51298;53.362;-1.518;2023-12-04T13:02:35;97619.94;;;2.44;94.91
22020;BME280;51298;53.362;-1.518;2023-12-04T13:05:09;97619.38;;;2.50;94.97
22020;BME280;51298;53.362;-1.518;2023-12-04T13:07:56;97626.78;;;2.53;94.86
22020;BME280;51298;53.362;-1.518;2023-12-04T13:10:30;97614.50;;;2.47;95.08
22020;BME280;51298;53.362;-1.518;2023-12-04T13:13:17;97616.78;;;2.50;95.15
22020;BME280;51298;53.362;-1.518;2023-12-04T13:15:50;97610.31;;;2.46;94.91
22020;BME280;51298;53.362;-1.518;2023-12-04T13:18:38;97606.25;;;2.43;94.84
22020;BME280;51298;53.362;-1.518;2023-12-04T13:21:11;97600.66;;;2.48;94.66
22020;BME280;51298;53.362;-1.518;2023-12-04T13:23:57;97605.81;;;2.48;94.92
22020;BME280;51298;53.362;-1.518;2023-12-04T13:26:29;97610.22;;;2.56;94.75
22020;BME280;51298;53.362;-1.518;2023-12-04T13:29:15;97606.84;;;2.55;94.67
22020;BME280;51298;53.362;-1.518;2023-12-04T13:31:51;97604.09;;;2.57;94.68
22020;BME280;51298;53.362;-1.518;2023-12-04T13:34:39;97606.16;;;2.53;94.68
22020;BME280;51298;53.362;-1.518;2023-12-04T13:37:11;97605.75;;;2.58;94.80
22020;BME280;51298;53.362;-1.518;2023-12-04T13:39:59;97608.00;;;2.61;94.74
22020;BME280;51298;53.362;-1.518;2023-12-04T13:42:36;97607.84;;;2.62;94.89
22020;BME280;51298;53.362;-1.518;2023-12-04T13:45:40;97612.34;;;2.60;94.84
22020;BME280;51298;53.362;-1.518;2023-12-04T13:48:12;97610.88;;;2.58;95.29
22020;BME280;51298;53.362;-1.518;2023-12-04T13:51:01;97604.59;;;2.60;95.37
22020;BME280;51298;53.362;-1.518;2023-12-04T13:53:33;97604.53;;;2.70;95.30
22020;BME280;51298;53.362;-1.518;2023-12-04T13:56:24;97603.41;;;2.73;95.06
22020;BME280;51298;53.362;-1.518;2023-12-04T13:58:59;97606.72;;;2.65;95.07
22020;BME280;51298;53.362;-1.518;2023-12-04T14:01:46;97612.03;;;2.63;94.87
22020;BME280;51298;53.362;-1.518;2023-12-04T14:04:18;97619.19;;;2.69;94.90
22020;BME280;51298;53.362;-1.518;2023-12-04T14:07:07;97610.94;;;2.66;94.97
22020;BME280;51298;53.362;-1.518;2023-12-04T14:09:44;97615.44;;;2.64;94.96
22020;BME280;51298;53.362;-1.518;2023-12-04T14:12:33;97602.09;;;2.68;95.02
22020;BME280;51298;53.362;-1.518;2023-12-04T14:15:06;97608.03;;;2.69;95.09
22020;BME280;51298;53.362;-1.518;2023-12-04T14:17:52;97609.69;;;2.70;94.94